createdAt,value
2023-05-12T00:02:21.509Z,75.00
2023-05-12T00:04:49.637Z,75.20
2023-05-12T00:07:17.665Z,75.00
2023-05-12T00:09:45.693Z,75.20
2023-05-12T00:12:12.466Z,75.10
2023-05-12T00:14:39.684Z,75.20
2023-05-12T00:17:06.823Z,75.20
2023-05-12T00:19:34.216Z,75.40
2023-05-12T00:22:04.783Z,75.30
2023-05-12T00:24:31.680Z,75.20
2023-05-12T00:26:58.793Z,75.30
2023-05-12T00:29:26.195Z,75.30
2023-05-12T00:31:53.049Z,75.40
2023-05-12T00:34:19.962Z,75.40
2023-05-12T00:36:47.358Z,75.50
2023-05-12T00:39:14.230Z,75.60
2023-05-12T00:41:41.111Z,75.60
2023-05-12T00:44:08.066Z,75.80
2023-05-12T00:46:34.894Z,75.90
2023-05-12T00:49:02.067Z,75.90
2023-05-12T00:51:29.436Z,75.80
2023-05-12T00:54:28.757Z,75.70
2023-05-12T00:56:56.433Z,75.50
2023-05-12T00:59:23.211Z,75.60
2023-05-12T01:01:50.489Z,75.70
2023-05-12T01:04:17.401Z,75.70
2023-05-12T01:06:49.611Z,75.70
2023-05-12T01:09:16.597Z,75.70
2023-05-12T01:11:44.255Z,75.80
2023-05-12T01:14:11.139Z,75.90
2023-05-12T01:16:47.257Z,75.80
2023-05-12T01:19:46.154Z,75.90
2023-05-12T01:22:13.198Z,75.90
2023-05-12T01:24:56.191Z,75.90
2023-05-12T01:27:25.455Z,75.90
2023-05-12T01:29:53.480Z,75.90
2023-05-12T01:32:20.304Z,75.80
2023-05-12T01:34:47.179Z,75.80
2023-05-12T01:37:14.733Z,75.80
2023-05-12T01:39:41.565Z,75.90
2023-05-12T01:42:08.723Z,76.00
2023-05-12T01:44:36.221Z,76.00
2023-05-12T01:47:03.089Z,76.00
2023-05-12T01:49:29.949Z,76.00
2023-05-12T01:51:57.142Z,75.90
2023-05-12T01:54:23.984Z,75.90
2023-05-12T01:56:51.916Z,75.80
2023-05-12T01:59:18.725Z,75.60
2023-05-12T02:01:45.612Z,75.40
2023-05-12T02:04:13.283Z,75.50
2023-05-12T02:06:40.591Z,75.60
2023-05-12T02:09:09.661Z,75.60
2023-05-12T02:11:37.634Z,75.50
2023-05-12T02:14:05.462Z,75.60
2023-05-12T02:16:32.302Z,75.40
2023-05-12T02:18:59.337Z,75.40
2023-05-12T02:21:28.020Z,75.60
2023-05-12T02:23:56.301Z,75.60
2023-05-12T02:26:23.425Z,75.60
2023-05-12T02:28:51.245Z,75.70
2023-05-12T02:31:18.490Z,75.60
2023-05-12T02:33:46.636Z,76.30
2023-05-12T02:36:14.184Z,75.40
2023-05-12T02:38:42.082Z,75.40
2023-05-12T02:41:12.148Z,75.50
2023-05-12T02:43:39.475Z,75.60
2023-05-12T02:46:06.524Z,75.70
2023-05-12T02:48:33.566Z,75.60
2023-05-12T02:51:00.471Z,75.60
2023-05-12T02:53:27.575Z,75.80
2023-05-12T02:55:54.533Z,75.80
2023-05-12T02:58:22.337Z,75.80
2023-05-12T03:00:56.847Z,75.60
2023-05-12T03:03:27.367Z,76.50
2023-05-12T03:05:54.289Z,76.70
2023-05-12T03:08:21.449Z,75.90
2023-05-12T03:10:48.373Z,76.00
2023-05-12T03:13:15.230Z,76.00
2023-05-12T03:15:42.296Z,76.00
2023-05-12T03:18:09.154Z,75.90
2023-05-12T03:20:36.196Z,75.80
2023-05-12T03:23:03.942Z,75.90
2023-05-12T03:25:31.020Z,75.60
2023-05-12T03:27:57.837Z,75.60
2023-05-12T03:30:24.851Z,75.70
2023-05-12T03:32:51.818Z,75.80
2023-05-12T03:35:19.016Z,76.00
2023-05-12T03:37:47.059Z,76.00
2023-05-12T03:40:19.119Z,76.00
2023-05-12T03:42:46.184Z,76.00
2023-05-12T03:45:13.008Z,75.90
2023-05-12T03:47:40.736Z,75.90
2023-05-12T03:50:09.147Z,75.90
2023-05-12T03:52:38.680Z,75.90
2023-05-12T03:55:12.232Z,76.00
2023-05-12T03:57:40.350Z,76.00
2023-05-12T04:00:08.723Z,76.00
2023-05-12T04:02:35.850Z,75.90
2023-05-12T04:05:03.072Z,75.90
2023-05-12T04:07:32.491Z,75.90
2023-05-12T04:10:01.153Z,75.80
2023-05-12T04:12:28.084Z,76.00
2023-05-12T04:14:56.364Z,76.00
2023-05-12T04:17:24.088Z,76.10
2023-05-12T04:19:52.738Z,76.20
2023-05-12T04:22:20.359Z,76.20
2023-05-12T04:24:48.316Z,76.20
2023-05-12T04:27:15.202Z,76.30
2023-05-12T04:29:42.054Z,76.40
2023-05-12T04:32:09.569Z,76.40
2023-05-12T04:34:36.495Z,76.40
2023-05-12T04:37:03.464Z,76.20
2023-05-12T04:39:31.339Z,76.20
2023-05-12T04:42:01.083Z,76.30
2023-05-12T04:44:28.156Z,76.30
2023-05-12T04:46:56.626Z,76.40
2023-05-12T04:49:23.911Z,76.40
2023-05-12T04:51:54.315Z,75.70
2023-05-12T04:54:24.799Z,76.40
2023-05-12T04:56:51.718Z,76.50
2023-05-12T04:59:18.809Z,76.50
2023-05-12T05:01:48.547Z,76.70
2023-05-12T05:04:16.761Z,76.60
2023-05-12T05:06:43.678Z,76.70
2023-05-12T05:09:10.537Z,76.60
2023-05-12T05:11:38.448Z,76.50
2023-05-12T05:14:05.562Z,76.60
2023-05-12T05:16:32.556Z,76.50
2023-05-12T05:18:59.887Z,76.80
2023-05-12T05:21:26.819Z,76.70
2023-05-12T05:23:53.673Z,76.50
2023-05-12T05:26:21.682Z,76.50
2023-05-12T05:28:48.513Z,76.40
2023-05-12T05:31:17.504Z,76.50
2023-05-12T05:33:44.718Z,76.50
2023-05-12T05:36:12.492Z,76.40
2023-05-12T05:38:39.424Z,76.20
2023-05-12T05:41:06.368Z,76.10
2023-05-12T05:43:33.532Z,76.00
2023-05-12T05:46:00.713Z,76.10
2023-05-12T05:48:28.574Z,76.10
2023-05-12T05:50:56.687Z,76.10
2023-05-12T05:53:23.635Z,76.20
2023-05-12T05:55:50.915Z,76.20
2023-05-12T05:58:17.850Z,76.20
2023-05-12T06:00:44.883Z,76.00
2023-05-12T06:03:12.766Z,76.10
2023-05-12T06:05:42.185Z,76.00
2023-05-12T06:08:11.085Z,76.10
2023-05-12T06:10:41.116Z,76.20
2023-05-12T06:13:08.795Z,76.20
2023-05-12T06:15:35.870Z,76.30
2023-05-12T06:18:02.980Z,76.30
2023-05-12T06:20:29.936Z,76.30
2023-05-12T06:22:57.104Z,76.60
2023-05-12T06:25:24.266Z,76.30
2023-05-12T06:27:52.899Z,76.30
2023-05-12T06:30:19.948Z,76.50
2023-05-12T06:32:46.867Z,76.30
2023-05-12T06:35:13.905Z,76.50
2023-05-12T06:37:40.895Z,76.40
2023-05-12T06:40:09.319Z,76.40
2023-05-12T06:42:36.161Z,76.20
2023-05-12T06:45:05.940Z,76.30
2023-05-12T06:47:33.445Z,76.30
2023-05-12T06:50:02.828Z,76.10
2023-05-12T06:52:29.692Z,76.10
2023-05-12T06:54:56.506Z,76.30
2023-05-12T06:57:23.284Z,76.30
2023-05-12T06:59:50.312Z,76.10
2023-05-12T07:02:17.441Z,76.20
2023-05-12T07:04:45.194Z,76.00
2023-05-12T07:07:13.329Z,76.00
2023-05-12T07:09:42.376Z,76.10
2023-05-12T07:12:10.361Z,76.00
2023-05-12T07:14:38.238Z,75.90
2023-05-12T07:17:05.103Z,76.10
2023-05-12T07:19:32.260Z,76.10
2023-05-12T07:21:59.235Z,76.10
2023-05-12T07:24:27.912Z,76.00
2023-05-12T07:26:54.773Z,75.90
2023-05-12T07:29:23.794Z,76.00
2023-05-12T07:31:51.293Z,75.70
2023-05-12T07:34:18.236Z,75.70
2023-05-12T07:36:45.140Z,75.70
2023-05-12T07:39:13.803Z,75.70
2023-05-12T07:41:41.311Z,76.00
2023-05-12T07:44:08.202Z,76.10
2023-05-12T07:46:36.563Z,75.90
2023-05-12T07:49:03.511Z,75.40
2023-05-12T07:51:30.528Z,75.70
2023-05-12T07:53:58.487Z,75.60
2023-05-12T07:56:25.374Z,75.00
2023-05-12T07:58:53.450Z,75.00
2023-05-12T08:01:20.869Z,75.00
2023-05-12T08:03:48.082Z,75.50
2023-05-12T08:06:15.957Z,75.40
2023-05-12T08:08:42.806Z,75.20
2023-05-12T08:11:11.525Z,74.70
2023-05-12T08:13:38.661Z,73.40
2023-05-12T08:16:06.610Z,73.40
2023-05-12T08:18:34.522Z,73.40
2023-05-12T08:21:04.333Z,73.00
2023-05-12T08:23:31.224Z,73.20
2023-05-12T08:25:59.021Z,72.50
2023-05-12T08:28:25.878Z,73.00
2023-05-12T08:30:56.600Z,72.80
2023-05-12T08:33:23.841Z,72.50
2023-05-12T08:35:51.890Z,72.50
2023-05-12T08:38:18.709Z,72.50
2023-05-12T08:41:10.074Z,72.20
2023-05-12T08:43:46.047Z,72.10
2023-05-12T08:46:13.345Z,71.90
2023-05-12T08:48:41.760Z,71.60
2023-05-12T08:51:11.966Z,71.70
2023-05-12T08:53:42.615Z,71.80
2023-05-12T08:58:42.106Z,71.40
2023-05-12T09:01:10.622Z,71.50
2023-05-12T09:03:37.440Z,70.90
2023-05-12T09:06:04.413Z,71.00
2023-05-12T09:08:37.755Z,70.60
2023-05-12T09:11:04.707Z,70.60
2023-05-12T09:14:19.326Z,69.70
2023-05-12T09:16:49.651Z,69.70
2023-05-12T09:19:21.467Z,68.80
2023-05-12T09:21:48.693Z,68.30
2023-05-12T09:24:16.939Z,67.60
2023-05-12T09:26:51.979Z,68.20
2023-05-12T09:29:30.790Z,68.70
2023-05-12T09:31:59.753Z,68.50
2023-05-12T09:34:35.702Z,68.90
2023-05-12T09:37:05.651Z,68.50
2023-05-12T09:39:33.253Z,68.00
2023-05-12T09:42:00.192Z,67.80
2023-05-12T09:44:29.593Z,67.40
2023-05-12T09:46:56.904Z,67.80
2023-05-12T09:49:28.844Z,67.30
2023-05-12T09:52:00.622Z,66.90
2023-05-12T09:54:28.537Z,66.50
2023-05-12T09:57:02.880Z,66.20
2023-05-12T09:59:34.466Z,66.20
2023-05-12T10:02:05.589Z,65.80
2023-05-12T10:04:39.523Z,65.10
2023-05-12T10:07:12.993Z,64.60
2023-05-12T10:09:43.073Z,65.20
2023-05-12T10:12:10.121Z,65.10
2023-05-12T10:14:37.727Z,64.20
2023-05-12T10:17:06.984Z,65.10
2023-05-12T10:19:34.079Z,65.20
2023-05-12T10:22:01.016Z,65.20
2023-05-12T10:24:28.058Z,64.90
2023-05-12T10:26:59.683Z,64.00
2023-05-12T10:29:31.247Z,64.00
2023-05-12T10:31:59.322Z,64.20
2023-05-12T10:34:37.206Z,64.50
2023-05-12T10:37:10.970Z,64.20
2023-05-12T10:39:47.699Z,63.90
2023-05-12T10:42:17.993Z,64.10
2023-05-12T10:44:55.629Z,63.70
2023-05-12T10:47:36.024Z,64.10
2023-05-12T10:50:03.448Z,63.00
2023-05-12T10:52:30.335Z,62.40
2023-05-12T10:55:01.621Z,62.50
2023-05-12T10:57:28.986Z,62.60
2023-05-12T11:00:01.182Z,62.70
2023-05-12T11:02:32.885Z,62.60
2023-05-12T11:05:06.776Z,62.70
2023-05-12T11:07:35.414Z,62.60
2023-05-12T11:10:05.524Z,63.10
2023-05-12T11:12:35.356Z,62.10
2023-05-12T11:15:06.532Z,62.50
2023-05-12T11:17:33.969Z,62.60
2023-05-12T11:20:01.591Z,61.50
2023-05-12T11:22:30.016Z,61.90
2023-05-12T11:24:57.216Z,61.00
2023-05-12T11:27:25.288Z,60.90
2023-05-12T11:29:59.171Z,61.90
2023-05-12T11:32:26.218Z,61.40
2023-05-12T11:34:53.315Z,61.00
2023-05-12T11:37:22.800Z,60.70
2023-05-12T11:39:53.074Z,61.00
2023-05-12T11:42:22.733Z,59.90
2023-05-12T11:44:52.092Z,59.90
2023-05-12T11:47:19.987Z,60.20
2023-05-12T11:49:49.322Z,60.20
2023-05-12T11:52:17.635Z,60.20
2023-05-12T11:55:01.555Z,60.20
2023-05-12T11:57:29.843Z,59.20
2023-05-12T12:00:00.518Z,59.40
2023-05-12T12:02:29.263Z,59.70
2023-05-12T12:04:56.460Z,59.70
2023-05-12T12:07:38.088Z,59.20
2023-05-12T12:10:17.816Z,59.60
2023-05-12T12:12:46.264Z,59.30
2023-05-12T12:15:15.803Z,58.90
2023-05-12T12:17:43.873Z,59.20
2023-05-12T12:20:13.744Z,59.10
2023-05-12T12:22:40.544Z,58.40
2023-05-12T12:25:09.046Z,58.70
2023-05-12T12:27:35.951Z,59.00
2023-05-12T12:30:04.841Z,59.20
2023-05-12T12:32:34.499Z,58.70
2023-05-12T12:35:03.902Z,58.30
2023-05-12T12:37:30.900Z,58.40
2023-05-12T12:39:59.166Z,58.60
2023-05-12T12:42:26.187Z,58.70
2023-05-12T12:44:53.141Z,58.90
2023-05-12T12:47:23.587Z,58.80
2023-05-12T12:49:51.809Z,59.00
2023-05-12T12:52:18.800Z,58.90
2023-05-12T12:54:46.749Z,58.90
2023-05-12T12:57:13.738Z,58.80
2023-05-12T12:59:40.671Z,58.90
2023-05-12T13:02:09.823Z,59.00
2023-05-12T13:04:38.164Z,59.10
2023-05-12T13:07:06.166Z,59.30
2023-05-12T13:09:36.108Z,59.50
2023-05-12T13:12:03.329Z,59.60
2023-05-12T13:14:30.210Z,59.00
2023-05-12T13:16:57.416Z,59.00
2023-05-12T13:19:24.371Z,59.00
2023-05-12T13:21:51.593Z,58.70
2023-05-12T13:24:18.724Z,58.70
2023-05-12T13:26:45.607Z,58.60
2023-05-12T13:29:13.620Z,58.30
2023-05-12T13:31:41.388Z,57.90
2023-05-12T13:34:09.551Z,57.90
2023-05-12T13:36:37.554Z,58.10
2023-05-12T13:39:04.615Z,58.10
2023-05-12T13:41:31.656Z,58.00
2023-05-12T13:43:58.454Z,58.30
2023-05-12T13:46:26.648Z,58.30
2023-05-12T13:48:53.559Z,58.10
2023-05-12T13:51:20.831Z,58.10
2023-05-12T13:53:48.770Z,57.60
2023-05-12T13:56:18.537Z,57.90
2023-05-12T13:58:45.494Z,57.90
2023-05-12T14:01:15.225Z,58.00
2023-05-12T14:03:42.788Z,58.40
2023-05-12T14:06:12.155Z,58.30
2023-05-12T14:08:41.092Z,58.90
2023-05-12T14:11:08.199Z,59.20
2023-05-12T14:13:35.029Z,59.60
2023-05-12T14:16:03.662Z,59.50
2023-05-12T14:18:30.680Z,59.70
2023-05-12T14:20:58.461Z,59.90
2023-05-12T14:23:25.301Z,60.30
2023-05-12T14:25:52.223Z,60.60
2023-05-12T14:28:23.377Z,61.50
2023-05-12T14:30:51.483Z,60.60
2023-05-12T14:33:18.573Z,60.50
2023-05-12T14:35:55.776Z,61.00
2023-05-12T14:38:32.980Z,61.40
2023-05-12T14:40:59.756Z,62.00
2023-05-12T14:43:27.192Z,62.10
2023-05-12T14:45:56.633Z,62.30
2023-05-12T14:48:26.050Z,62.30
2023-05-12T14:50:54.475Z,62.50
2023-05-12T14:53:21.445Z,62.60
2023-05-12T14:55:55.487Z,62.70
2023-05-12T14:58:24.180Z,62.10
2023-05-12T15:00:51.682Z,61.70
2023-05-12T15:03:21.839Z,62.00
2023-05-12T15:08:30.260Z,62.80
2023-05-12T15:10:58.602Z,63.10
2023-05-12T15:13:25.698Z,63.20
2023-05-12T15:15:55.351Z,63.00
2023-05-12T15:18:27.930Z,63.50
2023-05-12T15:20:54.823Z,62.90
2023-05-12T15:23:22.716Z,63.30
2023-05-12T15:25:49.531Z,63.80
2023-05-12T15:28:19.479Z,63.70
2023-05-12T15:30:56.965Z,63.70
2023-05-12T15:33:26.794Z,63.70
2023-05-12T15:35:55.172Z,63.90
2023-05-12T15:38:22.399Z,64.00
2023-05-12T15:40:53.803Z,64.10
2023-05-12T15:43:20.698Z,63.70
2023-05-12T15:45:47.542Z,63.70
2023-05-12T15:48:14.793Z,63.70
2023-05-12T15:50:41.677Z,63.60
2023-05-12T15:53:09.424Z,64.20
2023-05-12T15:55:36.228Z,64.50
2023-05-12T15:58:08.320Z,63.60
2023-05-12T16:00:38.023Z,63.20
2023-05-12T16:03:05.124Z,63.40
2023-05-12T16:05:34.157Z,63.20
2023-05-12T16:08:11.086Z,62.70
2023-05-12T16:10:46.149Z,62.70
2023-05-12T16:13:18.149Z,63.60
2023-05-12T16:15:51.812Z,64.10
2023-05-12T16:18:18.946Z,64.90
2023-05-12T16:20:47.807Z,65.70
2023-05-12T16:23:14.594Z,66.20
2023-05-12T16:25:47.209Z,66.00
2023-05-12T16:28:20.267Z,66.40
2023-05-12T16:30:51.713Z,66.80
2023-05-12T16:33:23.130Z,67.50
2023-05-12T16:35:50.746Z,67.40
2023-05-12T16:38:54.714Z,67.80
2023-05-12T16:41:23.119Z,68.60
2023-05-12T16:43:51.923Z,69.70
2023-05-12T16:46:19.692Z,69.10
2023-05-12T16:48:49.334Z,69.60
2023-05-12T16:51:18.921Z,70.10
2023-05-12T16:53:49.079Z,70.80
2023-05-12T16:56:16.557Z,71.30
2023-05-12T16:58:44.339Z,72.00
2023-05-12T17:01:11.239Z,72.00
2023-05-12T17:03:40.426Z,72.40
2023-05-12T17:06:09.005Z,72.60
2023-05-12T17:08:39.414Z,72.50
2023-05-12T17:11:06.359Z,72.40
2023-05-12T17:13:36.753Z,72.60
2023-05-12T17:16:04.478Z,73.20
2023-05-12T17:19:13.457Z,73.30
2023-05-12T17:21:22.558Z,73.90
2023-05-12T17:23:49.466Z,74.00
2023-05-12T17:26:23.107Z,74.00
2023-05-12T17:28:50.473Z,74.40
2023-05-12T17:31:19.632Z,74.50
2023-05-12T17:33:47.504Z,74.50
2023-05-12T17:36:14.346Z,74.40
2023-05-12T17:38:41.486Z,74.60
2023-05-12T17:41:08.553Z,74.40
2023-05-12T17:43:38.182Z,73.80
2023-05-12T17:46:05.438Z,73.70
2023-05-12T17:48:35.176Z,73.80
2023-05-12T17:51:03.976Z,73.60
2023-05-12T17:53:32.875Z,73.90
2023-05-12T17:56:02.046Z,73.70
2023-05-12T17:58:32.416Z,73.50
2023-05-12T18:01:03.798Z,74.00
2023-05-12T18:03:34.394Z,74.00
2023-05-12T18:06:02.222Z,74.30
2023-05-12T18:08:33.110Z,74.40
2023-05-12T18:10:59.947Z,74.10
2023-05-12T18:13:26.851Z,74.50
2023-05-12T18:15:53.675Z,74.60
2023-05-12T18:18:20.478Z,74.50
2023-05-12T18:20:50.612Z,74.90
2023-05-12T18:23:18.244Z,74.50
2023-05-12T18:25:45.387Z,74.80
2023-05-12T18:28:12.404Z,75.10
2023-05-12T18:30:39.684Z,75.40
2023-05-12T18:33:06.671Z,74.90
2023-05-12T18:35:41.289Z,74.80
2023-05-12T18:38:09.390Z,74.80
2023-05-12T18:40:36.389Z,75.20
2023-05-12T18:43:04.766Z,75.20
2023-05-12T18:45:31.743Z,75.00
2023-05-12T18:47:59.182Z,75.00
2023-05-12T18:50:29.623Z,75.20
2023-05-12T18:52:59.543Z,75.50
2023-05-12T18:55:26.836Z,75.50
2023-05-12T18:58:07.076Z,75.40
2023-05-12T19:00:39.407Z,75.50
2023-05-12T19:03:09.377Z,75.50
2023-05-12T19:05:36.349Z,75.40
2023-05-12T19:08:03.247Z,75.50
2023-05-12T19:10:30.113Z,75.40
2023-05-12T19:12:58.167Z,75.10
2023-05-12T19:15:26.237Z,75.20
2023-05-12T19:17:55.137Z,75.10
2023-05-12T19:20:23.843Z,75.20
2023-05-12T19:22:57.035Z,75.30
2023-05-12T19:25:24.273Z,75.30
2023-05-12T19:27:54.681Z,75.40
2023-05-12T19:30:28.779Z,75.50
2023-05-12T19:33:03.383Z,75.30
2023-05-12T19:35:30.274Z,75.20
2023-05-12T19:37:57.569Z,75.30
2023-05-12T19:40:28.613Z,75.30
2023-05-12T19:42:56.442Z,75.40
2023-05-12T19:45:24.408Z,75.50
2023-05-12T19:47:52.309Z,75.50
2023-05-12T19:50:20.919Z,75.60
2023-05-12T19:52:47.749Z,75.50
2023-05-12T19:55:17.742Z,75.50
2023-05-12T19:57:44.739Z,75.60
2023-05-12T20:00:13.590Z,75.60
2023-05-12T20:02:46.959Z,75.80
2023-05-12T20:05:15.010Z,75.70
2023-05-12T20:07:41.968Z,75.50
2023-05-12T20:10:09.641Z,75.50
2023-05-12T20:12:36.706Z,75.60
2023-05-12T20:15:03.775Z,75.50
2023-05-12T20:17:32.846Z,75.50
2023-05-12T20:20:01.320Z,75.60
2023-05-12T20:22:29.114Z,75.70
2023-05-12T20:24:59.473Z,75.80
2023-05-12T20:27:26.326Z,75.70
2023-05-12T20:29:53.089Z,75.80
2023-05-12T20:32:21.020Z,76.00
2023-05-12T20:34:48.091Z,76.00
2023-05-12T20:37:17.418Z,76.20
2023-05-12T20:39:44.307Z,76.30
2023-05-12T20:42:12.048Z,76.40
2023-05-12T20:44:38.845Z,76.50
2023-05-12T20:47:06.317Z,76.30
2023-05-12T20:49:34.216Z,76.40
2023-05-12T20:52:01.119Z,76.80
2023-05-12T20:54:28.248Z,76.80
2023-05-12T20:56:55.119Z,77.80
2023-05-12T20:59:22.100Z,77.10
2023-05-12T21:01:49.046Z,77.20
2023-05-12T21:04:17.247Z,77.20
2023-05-12T21:06:47.368Z,77.20
2023-05-12T21:09:17.225Z,77.20
2023-05-12T21:11:44.064Z,77.10
2023-05-12T21:14:10.837Z,77.20
2023-05-12T21:16:39.089Z,77.30
2023-05-12T21:19:06.656Z,77.20
2023-05-12T21:21:33.633Z,77.10
2023-05-12T21:24:00.498Z,77.10
2023-05-12T21:26:27.689Z,77.20
2023-05-12T21:28:54.615Z,77.40
2023-05-12T21:31:21.496Z,77.40
2023-05-12T21:33:48.385Z,77.40
2023-05-12T21:36:21.798Z,78.30
2023-05-12T21:38:48.666Z,77.40
2023-05-12T21:41:15.583Z,77.60
2023-05-12T21:43:43.516Z,77.40
2023-05-12T21:46:10.377Z,77.50
2023-05-12T21:48:38.412Z,77.80
2023-05-12T21:51:06.302Z,77.80
2023-05-12T21:53:33.176Z,77.80
2023-05-12T21:56:01.096Z,77.80
2023-05-12T21:58:28.272Z,77.70
2023-05-12T22:00:55.253Z,77.40
2023-05-12T22:03:23.004Z,77.80
2023-05-12T22:05:50.152Z,77.80
2023-05-12T22:08:17.141Z,77.90
2023-05-12T22:10:44.257Z,78.00
2023-05-12T22:13:11.130Z,77.80
2023-05-12T22:15:38.369Z,78.10
2023-05-12T22:18:05.314Z,78.30
2023-05-12T22:20:33.492Z,78.50
2023-05-12T22:23:00.335Z,78.20
2023-05-12T22:25:27.180Z,78.20
2023-05-12T22:27:54.031Z,78.10
2023-05-12T22:30:21.875Z,77.70
2023-05-12T22:32:48.882Z,77.80
2023-05-12T22:35:16.449Z,77.90
2023-05-12T22:37:43.681Z,78.10
2023-05-12T22:40:11.462Z,78.00
2023-05-12T22:42:39.271Z,78.00
2023-05-12T22:45:06.958Z,78.10
2023-05-12T22:47:34.344Z,78.30
2023-05-12T22:50:01.315Z,78.20
2023-05-12T22:52:28.247Z,78.40
2023-05-12T22:54:55.404Z,79.30
2023-05-12T22:57:23.532Z,78.40
2023-05-12T22:59:51.081Z,78.60
2023-05-12T23:02:17.924Z,78.70
2023-05-12T23:04:44.848Z,78.70
2023-05-12T23:07:12.124Z,78.70
2023-05-12T23:09:38.983Z,78.80
2023-05-12T23:12:06.095Z,78.70
2023-05-12T23:14:32.983Z,78.70
2023-05-12T23:17:00.287Z,78.50
2023-05-12T23:19:29.080Z,78.50
2023-05-12T23:21:55.891Z,78.50
2023-05-12T23:24:22.827Z,78.40
2023-05-12T23:26:51.001Z,78.40
2023-05-12T23:29:18.285Z,78.60
2023-05-12T23:31:45.151Z,78.50
2023-05-12T23:34:12.497Z,78.40
2023-05-12T23:36:39.730Z,78.50
2023-05-12T23:39:06.867Z,78.70
2023-05-12T23:41:37.188Z,78.70
2023-05-12T23:44:04.256Z,79.40
2023-05-12T23:46:31.308Z,78.80
2023-05-12T23:49:00.181Z,78.80
2023-05-12T23:51:28.785Z,78.90
2023-05-12T23:53:56.458Z,79.10
2023-05-12T23:56:23.257Z,79.10
2023-05-12T23:58:51.012Z,79.10
